Terminal Aerodrome Forecast
Issued by NWS

Home | Current Version | Previous Version | Text Only | Print | Product List | Glossary On
Versions: 1 2 3 4 5 6 7 8 9 10 11 12 13 14 15 16 17 18 19 20 21 22 23 24
000
FTUS41 KPBZ 291912 AAA
TAFHLG
TAF AMD
KHLG 291912Z 2919/3018 30005KT P6SM OVC020
     FM300300 VRB03KT 3SM BR BKN003
     FM300800 VRB03KT 5SM BR SCT003
     FM301500 10005KT P6SM SCT040=

USA.gov is the U.S. government's official web portal to all federal, state and local government web resources and services.